PDT,Max TemperatureF,Mean TemperatureF,Min TemperatureF,Max Dew PointF,MeanDew PointF,Min DewpointF,Max Humidity, Mean Humidity, Min Humidity, Max Sea Level PressureIn, Mean Sea Level PressureIn, Min Sea Level PressureIn, Max VisibilityMiles, Mean VisibilityMiles, Min VisibilityMiles, Max Wind SpeedMPH, Mean Wind SpeedMPH, Max Gust SpeedMPH,PrecipitationIn, CloudCover, Events, WindDirDegrees
2012-10-1,96,79,61,58,52,45,78,48,17,30.01,29.92,29.85,10,10,10,9,4,14,0.00,0,,291
2012-10-2,98,80,61,56,51,41,73,44,15,29.90,29.84,29.76,10,10,10,8,2,,0.00,0,,272
2012-10-3,99,80,61,53,48,42,60,38,16,29.91,29.84,29.80,10,10,10,9,3,,0.00,1,,260
2012-10-4,87,72,56,54,51,47,83,54,24,30.06,30.00,29.91,10,10,10,12,5,15,0.00,0,,295
2012-10-5,80,69,57,55,52,48,72,57,42,30.13,30.07,30.02,10,10,10,13,7,15,0.00,0,,304
2012-10-6,81,67,53,51,50,48,86,60,33,30.05,29.99,29.91,10,10,10,14,8,,0.00,0,,309
2012-10-7,82,67,52,53,50,48,89,61,33,29.99,29.93,29.88,10,10,10,13,6,15,0.00,0,,300
2012-10-8,78,67,55,50,47,44,72,52,31,30.01,29.97,29.94,10,10,10,14,10,20,0.00,0,,310
2012-10-9,78,64,49,48,45,41,89,59,28,30.01,29.96,29.90,10,10,10,12,5,16,0.00,0,,297
2012-10-10,77,64,50,50,47,43,89,61,33,29.96,29.90,29.85,10,10,10,10,5,,0.00,0,,246
2012-10-11,71,62,52,51,49,47,86,62,38,29.96,29.90,29.85,10,10,10,17,7,22,0.00,1,,302
2012-10-12,68,63,57,53,50,47,86,67,48,30.21,30.10,29.97,10,10,10,13,4,16,T,6,Rain,313
2012-10-13,73,60,46,51,48,45,100,69,38,30.29,30.23,30.16,10,10,10,9,4,14,0.01,0,,309
2012-10-14,80,65,50,54,50,46,83,60,37,30.22,30.14,30.05,10,10,10,10,3,14,0.00,0,,34
2012-10-15,83,67,50,58,52,47,89,62,34,30.07,30.01,29.93,10,10,10,12,3,15,0.00,0,,286
2012-10-16,85,70,55,61,55,49,83,60,37,29.98,29.90,29.81,10,10,10,12,5,20,0.00,0,,287
2012-10-17,83,70,56,58,54,46,93,65,37,29.92,29.87,29.82,10,10,10,7,3,,0.00,0,,303
2012-10-18,91,74,57,57,54,50,86,56,26,29.98,29.93,29.90,10,10,10,13,4,16,0.00,0,,324
2012-10-19,86,72,57,59,55,51,90,61,32,30.05,29.96,29.88,10,10,10,13,5,15,0.00,1,,331
2012-10-20,83,68,53,55,52,45,86,56,26,29.88,29.82,29.75,10,10,10,13,4,17,0.00,0,,309
2012-10-21,76,62,47,50,37,22,86,50,13,29.90,29.85,29.80,10,10,10,12,7,15,0.00,0,,308
2012-10-22,61,58,54,54,46,37,80,64,47,30.00,29.90,29.82,10,10,10,26,12,33,0.09,7,Rain,108
2012-10-23,65,54,42,49,44,40,100,70,40,30.06,30.01,29.98,10,10,10,12,5,15,0.01,2,,310
2012-10-24,68,55,41,46,42,39,96,67,37,30.18,30.13,30.04,10,10,10,13,3,20,0.00,3,,326
2012-10-25,71,59,47,49,47,45,89,67,44,30.24,30.19,30.14,10,10,10,16,6,22,0.00,4,,311
2012-10-26,71,57,42,50,44,39,96,70,44,30.22,30.16,30.09,10,10,10,8,2,,0.00,0,,298
2012-10-27,75,61,46,49,45,43,86,60,33,30.09,30.03,29.96,10,10,10,8,3,10,0.00,0,,59
2012-10-28,80,63,46,50,46,43,93,62,30,30.03,29.99,29.94,10,10,10,7,2,9,0.00,0,,80
2012-10-29,82,66,49,54,47,42,80,55,30,30.11,30.05,30.01,10,10,10,7,2,8,0.00,0,,63
2012-10-30,82,65,48,52,48,43,86,59,31,30.07,30.00,29.94,10,10,10,8,2,9,0.00,0,,97
2012-10-31,73,59,45,53,50,44,100,75,49,30.02,29.97,29.94,10,10,10,10,4,15,0.00,0,,299